Texas Enterprise — KSDF — position and weather

sailwx.info

Track history (hours):
 
Tides and Currents Weather Stations Pressure Air Temp Water Temp Dewpoint Dewpoint Depression Visibility Wind Speed Wind Dir Waves Ship Positions

Texas Enterprise

Owner: U.S. United Ocean Services, LLC, Tampa, FL. More information available from US FCC via Universal Licensing System and Coast Guard Vessel Documentation Center.

Last reported at 2016-Jul-25 15:32 UTC. Time now 2016-Jul-25 15:59 UTC.
Position N 18°26' W 066°07'.

Type: Cargo ship. MMSI: 366163000.

Date/timePositionNaut miles runAvg speedWind from/ knotsBaromVisibWave heightAir tempDewpointWater temp
2016-Jul-25 15:32N 18°26' W 066°07'0 0.0
2016-Jul-25 14:32N 18°26' W 066°07'0 0.0
2016-Jul-25 13:32N 18°26' W 066°07'0 0.0
2016-Jul-25 12:29N 18°26' W 066°07'0 0.0
2016-Jul-25 11:32N 18°26' W 066°07'0 0.0
2016-Jul-25 10:32N 18°26' W 066°07'0 0.0
2016-Jul-25 09:26N 18°26' W 066°07'0 0.0
2016-Jul-25 08:32N 18°26' W 066°07'0 0.0
2016-Jul-25 07:32N 18°26' W 066°07'0 0.0
2016-Jul-25 06:32N 18°26' W 066°07'0 0.0
2016-Jul-25 05:34N 18°26' W 066°07'5 5.1
2016-Jul-25 04:34N 18°31' W 066°07'  
2016-Jul-20 10:26N 29°38' W 089°56'1212.7
2016-Jul-20 09:31N 29°50' W 089°60'6 6.4
2016-Jul-20 08:33N 29°56' W 089°59'9 9.2
2016-Jul-20 07:34N 29°57' W 090°09'  
2016-Jul-16 19:28N 29°57' W 090°14'8 8.3
2016-Jul-16 18:34N 29°55' W 090°06'4 4.0
2016-Jul-16 17:31N 29°57' W 090°02'0 0.0
2016-Jul-16 16:31N 29°57' W 090°02'0 0.0
2016-Jul-16 15:31N 29°57' W 090°02'0 0.0
2016-Jul-16 14:31N 29°57' W 090°02'0 0.0
2016-Jul-16 13:31N 29°57' W 090°02'0 0.0
2016-Jul-16 12:31N 29°57' W 090°02'0 0.0
2016-Jul-16 11:31N 29°57' W 090°02'0 0.0
2016-Jul-16 10:31N 29°57' W 090°02'0 0.0
2016-Jul-16 09:31N 29°57' W 090°02'0 0.0
2016-Jul-16 08:31N 29°57' W 090°02'0 0.0
2016-Jul-16 07:31N 29°57' W 090°02'0 0.0
2016-Jul-16 06:31N 29°57' W 090°02'0 0.0
2016-Jul-16 04:31N 29°57' W 090°02'0 0.0
2016-Jul-16 03:31N 29°57' W 090°02'0 0.0
2016-Jul-16 02:31N 29°57' W 090°02'0 0.0
2016-Jul-16 01:31N 29°57' W 090°02'0 0.0
2016-Jul-16 00:31N 29°57' W 090°02'0 0.0
2016-Jul-15 23:31N 29°57' W 090°02'0 0.0
2016-Jul-15 22:31N 29°57' W 090°02'0 0.0
2016-Jul-15 21:31N 29°57' W 090°02'0 0.0
2016-Jul-15 20:31N 29°57' W 090°02'0 0.0
2016-Jul-15 19:31N 29°57' W 090°02'0 0.0
2016-Jul-15 18:31N 29°57' W 090°02'0 0.0
2016-Jul-15 17:31N 29°57' W 090°02'0 0.0
2016-Jul-15 16:31N 29°57' W 090°02'  
Track history (hours):
 
Tides and Currents Weather Stations Pressure Air Temp Water Temp Dewpoint Dewpoint Depression Visibility Wind Speed Wind Dir Waves Ship Positions

Texas Enterprise

Owner: U.S. United Ocean Services, LLC, Tampa, FL. More information available from US FCC via Universal Licensing System and Coast Guard Vessel Documentation Center.

Last reported at 2016-Jul-25 15:32 UTC. Time now 2016-Jul-25 15:59 UTC.
Position N 18°26' W 066°07'.

Type: Cargo ship. MMSI: 366163000.

Date/timePositionNaut miles runAvg speedWind from/ knotsBaromVisibWave heightAir tempDewpointWater temp
2016-Jul-25 15:32N 18°26' W 066°07'0 0.0
2016-Jul-25 14:32N 18°26' W 066°07'0 0.0
2016-Jul-25 13:32N 18°26' W 066°07'0 0.0
2016-Jul-25 12:29N 18°26' W 066°07'0 0.0
2016-Jul-25 11:32N 18°26' W 066°07'0 0.0
2016-Jul-25 10:32N 18°26' W 066°07'0 0.0
2016-Jul-25 09:26N 18°26' W 066°07'0 0.0
2016-Jul-25 08:32N 18°26' W 066°07'0 0.0
2016-Jul-25 07:32N 18°26' W 066°07'0 0.0
2016-Jul-25 06:32N 18°26' W 066°07'0 0.0
2016-Jul-25 05:34N 18°26' W 066°07'5 5.1
2016-Jul-25 04:34N 18°31' W 066°07'  
2016-Jul-20 10:26N 29°38' W 089°56'1212.7
2016-Jul-20 09:31N 29°50' W 089°60'6 6.4
2016-Jul-20 08:33N 29°56' W 089°59'9 9.2
2016-Jul-20 07:34N 29°57' W 090°09'  
2016-Jul-16 19:28N 29°57' W 090°14'8 8.3
2016-Jul-16 18:34N 29°55' W 090°06'4 4.0
2016-Jul-16 17:31N 29°57' W 090°02'0 0.0
2016-Jul-16 16:31N 29°57' W 090°02'0 0.0
2016-Jul-16 15:31N 29°57' W 090°02'0 0.0
2016-Jul-16 14:31N 29°57' W 090°02'0 0.0
2016-Jul-16 13:31N 29°57' W 090°02'0 0.0
2016-Jul-16 12:31N 29°57' W 090°02'0 0.0
2016-Jul-16 11:31N 29°57' W 090°02'0 0.0
2016-Jul-16 10:31N 29°57' W 090°02'0 0.0
2016-Jul-16 09:31N 29°57' W 090°02'0 0.0
2016-Jul-16 08:31N 29°57' W 090°02'0 0.0
2016-Jul-16 07:31N 29°57' W 090°02'0 0.0
2016-Jul-16 06:31N 29°57' W 090°02'0 0.0
2016-Jul-16 04:31N 29°57' W 090°02'0 0.0
2016-Jul-16 03:31N 29°57' W 090°02'0 0.0
2016-Jul-16 02:31N 29°57' W 090°02'0 0.0
2016-Jul-16 01:31N 29°57' W 090°02'0 0.0
2016-Jul-16 00:31N 29°57' W 090°02'0 0.0
2016-Jul-15 23:31N 29°57' W 090°02'0 0.0
2016-Jul-15 22:31N 29°57' W 090°02'0 0.0
2016-Jul-15 21:31N 29°57' W 090°02'0 0.0
2016-Jul-15 20:31N 29°57' W 090°02'0 0.0
2016-Jul-15 19:31N 29°57' W 090°02'0 0.0
2016-Jul-15 18:31N 29°57' W 090°02'0 0.0
2016-Jul-15 17:31N 29°57' W 090°02'0 0.0
2016-Jul-15 16:31N 29°57' W 090°02'  

Dump ship's entire track history